sensor_id;sensor_type;location;lat;lon;timestamp;P1;durP1;ratioP1;P2;durP2;ratioP2
22675;SDS011;12521;43.310;21.876;2023-03-05T00:03:37;68.0;;;48.0;;
22675;SDS011;12521;43.310;21.876;2023-03-05T00:08:14;67.0;;;48.0;;
22675;SDS011;12521;43.310;21.876;2023-03-05T00:12:51;67.0;;;48.0;;
22675;SDS011;12521;43.310;21.876;2023-03-05T00:17:28;65.0;;;48.0;;
22675;SDS011;12521;43.310;21.876;2023-03-05T00:22:05;65.0;;;48.0;;
22675;SDS011;12521;43.310;21.876;2023-03-05T00:26:44;63.0;;;47.0;;
22675;SDS011;12521;43.310;21.876;2023-03-05T00:31:27;63.0;;;47.0;;
22675;SDS011;12521;43.310;21.876;2023-03-05T00:36:10;63.0;;;47.0;;
22675;SDS011;12521;43.310;21.876;2023-03-05T00:40:50;62.0;;;45.0;;
22675;SDS011;12521;43.310;21.876;2023-03-05T00:45:26;62.0;;;45.0;;
22675;SDS011;12521;43.310;21.876;2023-03-05T00:50:07;62.0;;;43.0;;
22675;SDS011;12521;43.310;21.876;2023-03-05T00:54:47;62.0;;;43.0;;
22675;SDS011;12521;43.310;21.876;2023-03-05T00:59:23;61.0;;;42.0;;
22675;SDS011;12521;43.310;21.876;2023-03-05T01:04:00;61.0;;;42.0;;
22675;SDS011;12521;43.310;21.876;2023-03-05T01:08:38;60.0;;;41.0;;
22675;SDS011;12521;43.310;21.876;2023-03-05T01:13:16;60.0;;;41.0;;
22675;SDS011;12521;43.310;21.876;2023-03-05T01:17:54;56.0;;;38.0;;
22675;SDS011;12521;43.310;21.876;2023-03-05T01:22:31;56.0;;;38.0;;
22675;SDS011;12521;43.310;21.876;2023-03-05T01:27:08;52.0;;;36.0;;
22675;SDS011;12521;43.310;21.876;2023-03-05T01:31:45;52.0;;;36.0;;
22675;SDS011;12521;43.310;21.876;2023-03-05T01:36:22;52.0;;;36.0;;
22675;SDS011;12521;43.310;21.876;2023-03-05T01:40:59;54.0;;;38.0;;
22675;SDS011;12521;43.310;21.876;2023-03-05T01:45:37;54.0;;;38.0;;
22675;SDS011;12521;43.310;21.876;2023-03-05T01:50:57;57.0;;;40.0;;
22675;SDS011;12521;43.310;21.876;2023-03-05T01:55:34;57.0;;;40.0;;
22675;SDS011;12521;43.310;21.876;2023-03-05T02:00:19;66.0;;;44.0;;
22675;SDS011;12521;43.310;21.876;2023-03-05T02:05:15;66.0;;;44.0;;
22675;SDS011;12521;43.310;21.876;2023-03-05T02:09:58;75.0;;;49.0;;
22675;SDS011;12521;43.310;21.876;2023-03-05T02:14:35;75.0;;;49.0;;
22675;SDS011;12521;43.310;21.876;2023-03-05T02:19:15;66.0;;;45.0;;
22675;SDS011;12521;43.310;21.876;2023-03-05T02:23:52;66.0;;;45.0;;
22675;SDS011;12521;43.310;21.876;2023-03-05T02:28:38;56.0;;;41.0;;
22675;SDS011;12521;43.310;21.876;2023-03-05T02:33:28;56.0;;;41.0;;
22675;SDS011;12521;43.310;21.876;2023-03-05T02:38:05;58.0;;;40.0;;
22675;SDS011;12521;43.310;21.876;2023-03-05T02:42:42;58.0;;;40.0;;
22675;SDS011;12521;43.310;21.876;2023-03-05T02:47:21;59.0;;;39.0;;
22675;SDS011;12521;43.310;21.876;2023-03-05T02:51:57;59.0;;;39.0;;
22675;SDS011;12521;43.310;21.876;2023-03-05T02:56:34;59.0;;;39.0;;
22675;SDS011;12521;43.310;21.876;2023-03-05T03:01:11;62.0;;;41.0;;
22675;SDS011;12521;43.310;21.876;2023-03-05T03:05:47;62.0;;;41.0;;
22675;SDS011;12521;43.310;21.876;2023-03-05T03:10:24;64.0;;;43.0;;
22675;SDS011;12521;43.310;21.876;2023-03-05T03:15:01;64.0;;;43.0;;
22675;SDS011;12521;43.310;21.876;2023-03-05T03:19:40;58.0;;;42.0;;
22675;SDS011;12521;43.310;21.876;2023-03-05T03:24:19;58.0;;;42.0;;
22675;SDS011;12521;43.310;21.876;2023-03-05T03:28:57;53.0;;;41.0;;
22675;SDS011;12521;43.310;21.876;2023-03-05T03:33:34;53.0;;;41.0;;
22675;SDS011;12521;43.310;21.876;2023-03-05T03:38:12;54.0;;;40.0;;
22675;SDS011;12521;43.310;21.876;2023-03-05T03:42:50;54.0;;;40.0;;
22675;SDS011;12521;43.310;21.876;2023-03-05T03:47:29;56.0;;;40.0;;
22675;SDS011;12521;43.310;21.876;2023-03-05T03:52:07;56.0;;;40.0;;
22675;SDS011;12521;43.310;21.876;2023-03-05T03:56:46;56.0;;;39.0;;
22675;SDS011;12521;43.310;21.876;2023-03-05T04:01:23;56.0;;;39.0;;
22675;SDS011;12521;43.310;21.876;2023-03-05T04:06:00;56.0;;;39.0;;
22675;SDS011;12521;43.310;21.876;2023-03-05T04:10:37;56.0;;;38.0;;
22675;SDS011;12521;43.310;21.876;2023-03-05T04:15:14;56.0;;;38.0;;
22675;SDS011;12521;43.310;21.876;2023-03-05T04:19:51;58.0;;;38.0;;
22675;SDS011;12521;43.310;21.876;2023-03-05T04:24:27;58.0;;;38.0;;
22675;SDS011;12521;43.310;21.876;2023-03-05T04:29:03;59.0;;;39.0;;
22675;SDS011;12521;43.310;21.876;2023-03-05T04:33:40;59.0;;;39.0;;
22675;SDS011;12521;43.310;21.876;2023-03-05T04:38:17;60.0;;;40.0;;
22675;SDS011;12521;43.310;21.876;2023-03-05T04:42:53;60.0;;;40.0;;
22675;SDS011;12521;43.310;21.876;2023-03-05T04:47:30;60.0;;;42.0;;
22675;SDS011;12521;43.310;21.876;2023-03-05T04:52:09;60.0;;;42.0;;
22675;SDS011;12521;43.310;21.876;2023-03-05T04:56:50;62.0;;;42.0;;
22675;SDS011;12521;43.310;21.876;2023-03-05T05:01:27;62.0;;;42.0;;
22675;SDS011;12521;43.310;21.876;2023-03-05T05:06:05;62.0;;;42.0;;
22675;SDS011;12521;43.310;21.876;2023-03-05T05:10:43;64.0;;;42.0;;
22675;SDS011;12521;43.310;21.876;2023-03-05T05:15:20;64.0;;;42.0;;
22675;SDS011;12521;43.310;21.876;2023-03-05T05:19:58;59.0;;;41.0;;
22675;SDS011;12521;43.310;21.876;2023-03-05T05:24:35;59.0;;;41.0;;
22675;SDS011;12521;43.310;21.876;2023-03-05T05:29:12;54.0;;;40.0;;
22675;SDS011;12521;43.310;21.876;2023-03-05T05:33:48;54.0;;;40.0;;
22675;SDS011;12521;43.310;21.876;2023-03-05T05:38:25;58.0;;;44.0;;
22675;SDS011;12521;43.310;21.876;2023-03-05T05:43:02;58.0;;;44.0;;
22675;SDS011;12521;43.310;21.876;2023-03-05T05:47:38;63.0;;;47.0;;
22675;SDS011;12521;43.310;21.876;2023-03-05T06:01:45;63.0;;;47.0;;
22675;SDS011;12521;43.310;21.876;2023-03-05T06:06:25;63.0;;;47.0;;
22675;SDS011;12521;43.310;21.876;2023-03-05T06:20:19;66.0;;;46.0;;
22675;SDS011;12521;43.310;21.876;2023-03-05T06:24:56;66.0;;;46.0;;
22675;SDS011;12521;43.310;21.876;2023-03-05T06:29:33;66.0;;;46.0;;
22675;SDS011;12521;43.310;21.876;2023-03-05T06:34:10;66.0;;;46.0;;
22675;SDS011;12521;43.310;21.876;2023-03-05T06:38:51;62.0;;;44.0;;
22675;SDS011;12521;43.310;21.876;2023-03-05T06:43:30;62.0;;;44.0;;
22675;SDS011;12521;43.310;21.876;2023-03-05T06:48:08;58.0;;;42.0;;
22675;SDS011;12521;43.310;21.876;2023-03-05T06:52:48;58.0;;;42.0;;
22675;SDS011;12521;43.310;21.876;2023-03-05T06:57:26;62.0;;;42.0;;
22675;SDS011;12521;43.310;21.876;2023-03-05T07:02:02;62.0;;;42.0;;
22675;SDS011;12521;43.310;21.876;2023-03-05T07:06:40;62.0;;;42.0;;
22675;SDS011;12521;43.310;21.876;2023-03-05T07:11:20;65.0;;;43.0;;
22675;SDS011;12521;43.310;21.876;2023-03-05T07:15:58;65.0;;;43.0;;
22675;SDS011;12521;43.310;21.876;2023-03-05T07:20:36;60.0;;;42.0;;
22675;SDS011;12521;43.310;21.876;2023-03-05T07:25:12;60.0;;;42.0;;
22675;SDS011;12521;43.310;21.876;2023-03-05T07:29:49;56.0;;;40.0;;
22675;SDS011;12521;43.310;21.876;2023-03-05T07:34:25;56.0;;;40.0;;
22675;SDS011;12521;43.310;21.876;2023-03-05T07:39:03;58.0;;;42.0;;
22675;SDS011;12521;43.310;21.876;2023-03-05T07:43:40;58.0;;;42.0;;
22675;SDS011;12521;43.310;21.876;2023-03-05T07:48:18;61.0;;;44.0;;
22675;SDS011;12521;43.310;21.876;2023-03-05T07:52:54;61.0;;;44.0;;
22675;SDS011;12521;43.310;21.876;2023-03-05T07:57:31;56.0;;;42.0;;
22675;SDS011;12521;43.310;21.876;2023-03-05T08:02:10;56.0;;;42.0;;
22675;SDS011;12521;43.310;21.876;2023-03-05T08:06:48;56.0;;;42.0;;
22675;SDS011;12521;43.310;21.876;2023-03-05T08:11:25;50.0;;;40.0;;
22675;SDS011;12521;43.310;21.876;2023-03-05T08:16:07;50.0;;;40.0;;
22675;SDS011;12521;43.310;21.876;2023-03-05T08:20:48;66.0;;;47.0;;
22675;SDS011;12521;43.310;21.876;2023-03-05T08:25:24;66.0;;;47.0;;
22675;SDS011;12521;43.310;21.876;2023-03-05T08:30:01;83.0;;;54.0;;
22675;SDS011;12521;43.310;21.876;2023-03-05T08:34:37;83.0;;;54.0;;
22675;SDS011;12521;43.310;21.876;2023-03-05T08:39:15;70.0;;;53.0;;
22675;SDS011;12521;43.310;21.876;2023-03-05T08:43:53;70.0;;;53.0;;
22675;SDS011;12521;43.310;21.876;2023-03-05T08:48:31;58.0;;;52.0;;
22675;SDS011;12521;43.310;21.876;2023-03-05T08:53:10;58.0;;;52.0;;
22675;SDS011;12521;43.310;21.876;2023-03-05T08:57:46;52.0;;;44.0;;
22675;SDS011;12521;43.310;21.876;2023-03-05T09:02:23;52.0;;;44.0;;
22675;SDS011;12521;43.310;21.876;2023-03-05T09:07:00;52.0;;;44.0;;
22675;SDS011;12521;43.310;21.876;2023-03-05T09:11:37;46.0;;;35.0;;
22675;SDS011;12521;43.310;21.876;2023-03-05T09:16:18;46.0;;;35.0;;
22675;SDS011;12521;43.310;21.876;2023-03-05T09:20:57;44.0;;;34.0;;
22675;SDS011;12521;43.310;21.876;2023-03-05T09:25:39;44.0;;;34.0;;
22675;SDS011;12521;43.310;21.876;2023-03-05T09:30:17;41.0;;;33.0;;
22675;SDS011;12521;43.310;21.876;2023-03-05T09:34:54;41.0;;;33.0;;
22675;SDS011;12521;43.310;21.876;2023-03-05T09:39:30;44.0;;;35.0;;
22675;SDS011;12521;43.310;21.876;2023-03-05T09:44:28;44.0;;;35.0;;
22675;SDS011;12521;43.310;21.876;2023-03-05T09:49:47;48.0;;;37.0;;
22675;SDS011;12521;43.310;21.876;2023-03-05T09:54:42;48.0;;;37.0;;
22675;SDS011;12521;43.310;21.876;2023-03-05T09:59:44;44.0;;;36.0;;
22675;SDS011;12521;43.310;21.876;2023-03-05T10:04:48;44.0;;;36.0;;
22675;SDS011;12521;43.310;21.876;2023-03-05T10:09:48;40.0;;;35.0;;
22675;SDS011;12521;43.310;21.876;2023-03-05T10:14:39;40.0;;;35.0;;
22675;SDS011;12521;43.310;21.876;2023-03-05T10:19:54;40.0;;;35.0;;
22675;SDS011;12521;43.310;21.876;2023-03-05T10:25:21;40.0;;;35.0;;
22675;SDS011;12521;43.310;21.876;2023-03-05T10:42:14;41.0;;;31.0;;
22675;SDS011;12521;43.310;21.876;2023-03-05T10:47:21;41.0;;;31.0;;
22675;SDS011;12521;43.310;21.876;2023-03-05T10:52:21;41.0;;;31.0;;
22675;SDS011;12521;43.310;21.876;2023-03-05T10:57:23;37.0;;;28.0;;
22675;SDS011;12521;43.310;21.876;2023-03-05T11:02:07;37.0;;;28.0;;
22675;SDS011;12521;43.310;21.876;2023-03-05T11:06:45;37.0;;;28.0;;
22675;SDS011;12521;43.310;21.876;2023-03-05T11:11:23;33.0;;;26.0;;
22675;SDS011;12521;43.310;21.876;2023-03-05T11:16:05;33.0;;;26.0;;
22675;SDS011;12521;43.310;21.876;2023-03-05T11:21:11;32.0;;;25.0;;
22675;SDS011;12521;43.310;21.876;2023-03-05T11:26:05;32.0;;;25.0;;
22675;SDS011;12521;43.310;21.876;2023-03-05T11:31:21;31.0;;;24.0;;
22675;SDS011;12521;43.310;21.876;2023-03-05T11:36:27;31.0;;;24.0;;
22675;SDS011;12521;43.310;21.876;2023-03-05T11:41:10;30.0;;;24.0;;
22675;SDS011;12521;43.310;21.876;2023-03-05T11:46:02;30.0;;;24.0;;
22675;SDS011;12521;43.310;21.876;2023-03-05T11:50:52;30.0;;;24.0;;
22675;SDS011;12521;43.310;21.876;2023-03-05T11:55:48;30.0;;;24.0;;
22675;SDS011;12521;43.310;21.876;2023-03-05T12:00:46;33.0;;;25.0;;
22675;SDS011;12521;43.310;21.876;2023-03-05T12:05:26;33.0;;;25.0;;
22675;SDS011;12521;43.310;21.876;2023-03-05T12:10:19;36.0;;;26.0;;
22675;SDS011;12521;43.310;21.876;2023-03-05T12:15:46;36.0;;;26.0;;
22675;SDS011;12521;43.310;21.876;2023-03-05T12:21:14;30.0;;;22.0;;
22675;SDS011;12521;43.310;21.876;2023-03-05T12:25:57;30.0;;;22.0;;
22675;SDS011;12521;43.310;21.876;2023-03-05T12:31:33;25.0;;;19.0;;
22675;SDS011;12521;43.310;21.876;2023-03-05T12:36:36;25.0;;;19.0;;
22675;SDS011;12521;43.310;21.876;2023-03-05T12:41:33;28.0;;;22.0;;
22675;SDS011;12521;43.310;21.876;2023-03-05T12:46:27;28.0;;;22.0;;
22675;SDS011;12521;43.310;21.876;2023-03-05T12:51:04;30.0;;;24.0;;
22675;SDS011;12521;43.310;21.876;2023-03-05T12:56:01;30.0;;;24.0;;
22675;SDS011;12521;43.310;21.876;2023-03-05T13:01:05;30.0;;;23.0;;
22675;SDS011;12521;43.310;21.876;2023-03-05T13:06:28;30.0;;;23.0;;
22675;SDS011;12521;43.310;21.876;2023-03-05T13:11:20;31.0;;;22.0;;
22675;SDS011;12521;43.310;21.876;2023-03-05T13:16:02;31.0;;;22.0;;
22675;SDS011;12521;43.310;21.876;2023-03-05T13:21:02;30.0;;;24.0;;
22675;SDS011;12521;43.310;21.876;2023-03-05T13:26:10;30.0;;;24.0;;
22675;SDS011;12521;43.310;21.876;2023-03-05T13:30:59;29.0;;;25.0;;
22675;SDS011;12521;43.310;21.876;2023-03-05T13:35:51;29.0;;;25.0;;
22675;SDS011;12521;43.310;21.876;2023-03-05T13:40:31;27.0;;;22.0;;
22675;SDS011;12521;43.310;21.876;2023-03-05T13:45:26;27.0;;;22.0;;
22675;SDS011;12521;43.310;21.876;2023-03-05T13:50:24;25.0;;;20.0;;
22675;SDS011;12521;43.310;21.876;2023-03-05T13:55:15;25.0;;;20.0;;
22675;SDS011;12521;43.310;21.876;2023-03-05T13:59:54;25.0;;;20.0;;
22675;SDS011;12521;43.310;21.876;2023-03-05T14:04:41;25.0;;;20.0;;
22675;SDS011;12521;43.310;21.876;2023-03-05T14:09:27;25.0;;;19.0;;
22675;SDS011;12521;43.310;21.876;2023-03-05T14:14:25;25.0;;;19.0;;
22675;SDS011;12521;43.310;21.876;2023-03-05T14:19:35;20.0;;;18.0;;
22675;SDS011;12521;43.310;21.876;2023-03-05T14:24:23;20.0;;;18.0;;
22675;SDS011;12521;43.310;21.876;2023-03-05T14:29:17;16.0;;;16.0;;
22675;SDS011;12521;43.310;21.876;2023-03-05T14:34:06;16.0;;;16.0;;
22675;SDS011;12521;43.310;21.876;2023-03-05T14:39:00;34.0;;;26.0;;
22675;SDS011;12521;43.310;21.876;2023-03-05T14:43:37;34.0;;;26.0;;
22675;SDS011;12521;43.310;21.876;2023-03-05T14:48:17;52.0;;;36.0;;
22675;SDS011;12521;43.310;21.876;2023-03-05T14:53:01;52.0;;;36.0;;
22675;SDS011;12521;43.310;21.876;2023-03-05T14:58:06;39.0;;;27.0;;
22675;SDS011;12521;43.310;21.876;2023-03-05T15:02:57;39.0;;;27.0;;
22675;SDS011;12521;43.310;21.876;2023-03-05T15:07:34;26.0;;;18.0;;
22675;SDS011;12521;43.310;21.876;2023-03-05T15:12:15;26.0;;;18.0;;
22675;SDS011;12521;43.310;21.876;2023-03-05T15:16:53;26.0;;;18.0;;
22675;SDS011;12521;43.310;21.876;2023-03-05T15:21:30;26.0;;;22.0;;
22675;SDS011;12521;43.310;21.876;2023-03-05T15:26:11;26.0;;;22.0;;
22675;SDS011;12521;43.310;21.876;2023-03-05T15:30:50;27.0;;;25.0;;
22675;SDS011;12521;43.310;21.876;2023-03-05T15:35:26;27.0;;;25.0;;
22675;SDS011;12521;43.310;21.876;2023-03-05T15:40:05;26.0;;;23.0;;
22675;SDS011;12521;43.310;21.876;2023-03-05T15:44:44;26.0;;;23.0;;
22675;SDS011;12521;43.310;21.876;2023-03-05T15:49:21;24.0;;;21.0;;
22675;SDS011;12521;43.310;21.876;2023-03-05T15:53:58;24.0;;;21.0;;
22675;SDS011;12521;43.310;21.876;2023-03-05T15:58:34;26.0;;;21.0;;
22675;SDS011;12521;43.310;21.876;2023-03-05T16:03:11;26.0;;;21.0;;
22675;SDS011;12521;43.310;21.876;2023-03-05T16:07:51;27.0;;;21.0;;
22675;SDS011;12521;43.310;21.876;2023-03-05T16:12:37;27.0;;;21.0;;
22675;SDS011;12521;43.310;21.876;2023-03-05T16:17:20;27.0;;;21.0;;
22675;SDS011;12521;43.310;21.876;2023-03-05T16:21:59;27.0;;;22.0;;
22675;SDS011;12521;43.310;21.876;2023-03-05T16:26:38;27.0;;;22.0;;
22675;SDS011;12521;43.310;21.876;2023-03-05T16:31:16;27.0;;;22.0;;
22675;SDS011;12521;43.310;21.876;2023-03-05T16:36:22;27.0;;;22.0;;
22675;SDS011;12521;43.310;21.876;2023-03-05T16:41:03;36.0;;;28.0;;
22675;SDS011;12521;43.310;21.876;2023-03-05T16:45:40;36.0;;;28.0;;
22675;SDS011;12521;43.310;21.876;2023-03-05T16:50:17;46.0;;;35.0;;
22675;SDS011;12521;43.310;21.876;2023-03-05T16:54:54;46.0;;;35.0;;
22675;SDS011;12521;43.310;21.876;2023-03-05T16:59:31;42.0;;;32.0;;
22675;SDS011;12521;43.310;21.876;2023-03-05T17:04:07;42.0;;;32.0;;
22675;SDS011;12521;43.310;21.876;2023-03-05T17:08:46;39.0;;;28.0;;
22675;SDS011;12521;43.310;21.876;2023-03-05T17:13:25;39.0;;;28.0;;
22675;SDS011;12521;43.310;21.876;2023-03-05T17:18:02;40.0;;;30.0;;
22675;SDS011;12521;43.310;21.876;2023-03-05T17:22:40;40.0;;;30.0;;
22675;SDS011;12521;43.310;21.876;2023-03-05T17:27:17;40.0;;;30.0;;
22675;SDS011;12521;43.310;21.876;2023-03-05T17:31:53;40.0;;;33.0;;
22675;SDS011;12521;43.310;21.876;2023-03-05T17:36:30;40.0;;;33.0;;
22675;SDS011;12521;43.310;21.876;2023-03-05T17:41:07;40.0;;;33.0;;
22675;SDS011;12521;43.310;21.876;2023-03-05T17:45:45;40.0;;;33.0;;
22675;SDS011;12521;43.310;21.876;2023-03-05T17:50:22;39.0;;;33.0;;
22675;SDS011;12521;43.310;21.876;2023-03-05T17:54:59;39.0;;;33.0;;
22675;SDS011;12521;43.310;21.876;2023-03-05T17:59:35;44.0;;;34.0;;
22675;SDS011;12521;43.310;21.876;2023-03-05T18:04:11;44.0;;;34.0;;
22675;SDS011;12521;43.310;21.876;2023-03-05T18:08:48;48.0;;;36.0;;
22675;SDS011;12521;43.310;21.876;2023-03-05T18:13:25;48.0;;;36.0;;
22675;SDS011;12521;43.310;21.876;2023-03-05T18:18:02;75.0;;;58.0;;
22675;SDS011;12521;43.310;21.876;2023-03-05T18:22:38;75.0;;;58.0;;
22675;SDS011;12521;43.310;21.876;2023-03-05T18:27:15;75.0;;;58.0;;
22675;SDS011;12521;43.310;21.876;2023-03-05T18:31:51;102.0;;;79.0;;
22675;SDS011;12521;43.310;21.876;2023-03-05T18:36:29;102.0;;;79.0;;
22675;SDS011;12521;43.310;21.876;2023-03-05T18:41:05;108.0;;;86.0;;
22675;SDS011;12521;43.310;21.876;2023-03-05T18:45:42;108.0;;;86.0;;
22675;SDS011;12521;43.310;21.876;2023-03-05T18:50:26;115.0;;;93.0;;
22675;SDS011;12521;43.310;21.876;2023-03-05T18:55:06;115.0;;;93.0;;
22675;SDS011;12521;43.310;21.876;2023-03-05T18:59:47;119.0;;;100.0;;
22675;SDS011;12521;43.310;21.876;2023-03-05T19:04:23;119.0;;;100.0;;
22675;SDS011;12521;43.310;21.876;2023-03-05T19:09:16;123.0;;;106.0;;
22675;SDS011;12521;43.310;21.876;2023-03-05T19:14:17;123.0;;;106.0;;
22675;SDS011;12521;43.310;21.876;2023-03-05T19:19:06;136.0;;;116.0;;
22675;SDS011;12521;43.310;21.876;2023-03-05T19:23:50;136.0;;;116.0;;
22675;SDS011;12521;43.310;21.876;2023-03-05T19:28:27;149.0;;;126.0;;
22675;SDS011;12521;43.310;21.876;2023-03-05T19:33:04;149.0;;;126.0;;
22675;SDS011;12521;43.310;21.876;2023-03-05T19:37:41;137.0;;;114.0;;
22675;SDS011;12521;43.310;21.876;2023-03-05T19:42:18;137.0;;;114.0;;
22675;SDS011;12521;43.310;21.876;2023-03-05T19:46:56;137.0;;;114.0;;
22675;SDS011;12521;43.310;21.876;2023-03-05T19:51:34;125.0;;;101.0;;
22675;SDS011;12521;43.310;21.876;2023-03-05T19:56:15;125.0;;;101.0;;
22675;SDS011;12521;43.310;21.876;2023-03-05T20:00:54;140.0;;;108.0;;
22675;SDS011;12521;43.310;21.876;2023-03-05T20:05:31;140.0;;;108.0;;
22675;SDS011;12521;43.310;21.876;2023-03-05T20:10:11;156.0;;;116.0;;
22675;SDS011;12521;43.310;21.876;2023-03-05T20:14:48;156.0;;;116.0;;
22675;SDS011;12521;43.310;21.876;2023-03-05T20:19:25;136.0;;;107.0;;
22675;SDS011;12521;43.310;21.876;2023-03-05T20:24:09;136.0;;;107.0;;
22675;SDS011;12521;43.310;21.876;2023-03-05T20:28:57;117.0;;;98.0;;
22675;SDS011;12521;43.310;21.876;2023-03-05T20:33:34;117.0;;;98.0;;
22675;SDS011;12521;43.310;21.876;2023-03-05T20:38:16;137.0;;;112.0;;
22675;SDS011;12521;43.310;21.876;2023-03-05T20:42:54;137.0;;;112.0;;
22675;SDS011;12521;43.310;21.876;2023-03-05T20:47:42;137.0;;;112.0;;
22675;SDS011;12521;43.310;21.876;2023-03-05T20:52:19;157.0;;;125.0;;
22675;SDS011;12521;43.310;21.876;2023-03-05T20:56:55;157.0;;;125.0;;
22675;SDS011;12521;43.310;21.876;2023-03-05T21:01:37;136.0;;;110.0;;
22675;SDS011;12521;43.310;21.876;2023-03-05T21:06:15;136.0;;;110.0;;
22675;SDS011;12521;43.310;21.876;2023-03-05T21:10:52;115.0;;;94.0;;
22675;SDS011;12521;43.310;21.876;2023-03-05T21:15:30;115.0;;;94.0;;
22675;SDS011;12521;43.310;21.876;2023-03-05T21:20:13;120.0;;;100.0;;
22675;SDS011;12521;43.310;21.876;2023-03-05T21:25:10;120.0;;;100.0;;
22675;SDS011;12521;43.310;21.876;2023-03-05T21:29:49;126.0;;;105.0;;
22675;SDS011;12521;43.310;21.876;2023-03-05T21:34:26;126.0;;;105.0;;
22675;SDS011;12521;43.310;21.876;2023-03-05T21:39:02;124.0;;;102.0;;
22675;SDS011;12521;43.310;21.876;2023-03-05T21:43:40;124.0;;;102.0;;
22675;SDS011;12521;43.310;21.876;2023-03-05T21:48:17;121.0;;;98.0;;
22675;SDS011;12521;43.310;21.876;2023-03-05T21:52:55;121.0;;;98.0;;
22675;SDS011;12521;43.310;21.876;2023-03-05T21:57:33;121.0;;;98.0;;
22675;SDS011;12521;43.310;21.876;2023-03-05T22:02:12;122.0;;;93.0;;
22675;SDS011;12521;43.310;21.876;2023-03-05T22:06:55;122.0;;;93.0;;
22675;SDS011;12521;43.310;21.876;2023-03-05T22:11:32;122.0;;;88.0;;
22675;SDS011;12521;43.310;21.876;2023-03-05T22:16:10;122.0;;;88.0;;
22675;SDS011;12521;43.310;21.876;2023-03-05T22:21:00;125.0;;;92.0;;
22675;SDS011;12521;43.310;21.876;2023-03-05T22:25:42;125.0;;;92.0;;
22675;SDS011;12521;43.310;21.876;2023-03-05T22:30:21;128.0;;;96.0;;
22675;SDS011;12521;43.310;21.876;2023-03-05T22:34:59;128.0;;;96.0;;
22675;SDS011;12521;43.310;21.876;2023-03-05T22:39:40;132.0;;;103.0;;
22675;SDS011;12521;43.310;21.876;2023-03-05T22:44:17;132.0;;;103.0;;
22675;SDS011;12521;43.310;21.876;2023-03-05T22:48:54;136.0;;;110.0;;
22675;SDS011;12521;43.310;21.876;2023-03-05T22:53:32;136.0;;;110.0;;
22675;SDS011;12521;43.310;21.876;2023-03-05T22:58:09;130.0;;;101.0;;
22675;SDS011;12521;43.310;21.876;2023-03-05T23:02:46;130.0;;;101.0;;
22675;SDS011;12521;43.310;21.876;2023-03-05T23:07:28;130.0;;;101.0;;
22675;SDS011;12521;43.310;21.876;2023-03-05T23:12:12;123.0;;;92.0;;
22675;SDS011;12521;43.310;21.876;2023-03-05T23:16:48;123.0;;;92.0;;
22675;SDS011;12521;43.310;21.876;2023-03-05T23:21:25;130.0;;;95.0;;
22675;SDS011;12521;43.310;21.876;2023-03-05T23:26:02;130.0;;;95.0;;
22675;SDS011;12521;43.310;21.876;2023-03-05T23:30:39;138.0;;;98.0;;
22675;SDS011;12521;43.310;21.876;2023-03-05T23:35:21;138.0;;;98.0;;
22675;SDS011;12521;43.310;21.876;2023-03-05T23:40:05;137.0;;;98.0;;
22675;SDS011;12521;43.310;21.876;2023-03-05T23:44:47;137.0;;;98.0;;
22675;SDS011;12521;43.310;21.876;2023-03-05T23:49:23;136.0;;;97.0;;
22675;SDS011;12521;43.310;21.876;2023-03-05T23:54:01;136.0;;;97.0;;
22675;SDS011;12521;43.310;21.876;2023-03-05T23:58:38;136.0;;;96.0;;
